Time;durP1;ratioP1;P1;durP2;ratioP2;P2;SDS_P1;SDS_P2;PMS_P1;PMS_P2;Temp;Humidity;BMP_temperature;BMP_pressure;BME280_temperature;BME280_humidity;BME280_pressure;Samples;Min_cycle;Max_cycle;Signal;HPM_P1;HPM_P2
2021/11/21 00:01:40;;;;;;;1052.40;968.83;;;;;;;20.28;51.37;101952.81;5057411;28;20024;-44
2021/11/21 00:04:06;;;;;;;1019.38;940.90;;;;;;;20.24;51.35;101948.72;5057394;28;20021;-44
2021/11/21 00:06:32;;;;;;;1046.03;963.05;;;;;;;20.27;51.50;101959.13;5057351;28;20021;-44
2021/11/21 00:08:58;;;;;;;1074.13;988.65;;;;;;;20.27;51.55;101965.31;5057201;28;20028;-44
2021/11/21 00:11:24;;;;;;;1057.30;971.70;;;;;;;20.26;51.73;101962.78;5057253;28;20032;-44
2021/11/21 00:13:52;;;;;;;1064.88;980.75;;;;;;;20.22;51.90;101967.53;5057274;28;20032;-44
2021/11/21 00:16:18;;;;;;;1062.38;976.55;;;;;;;20.22;51.46;101958.69;5056037;28;20107;-44
2021/11/21 00:18:44;;;;;;;1076.32;989.28;;;;;;;20.23;51.47;101973.69;5054760;28;20021;-44
2021/11/21 00:21:10;;;;;;;1044.97;962.58;;;;;;;20.20;51.62;101976.59;5057051;28;20029;-44
2021/11/21 00:23:37;;;;;;;1082.28;995.42;;;;;;;20.18;51.49;101974.09;5056779;28;20021;-45
2021/11/21 00:26:03;;;;;;;1093.82;998.22;;;;;;;20.19;51.56;101980.25;5056894;28;20376;-44
2021/11/21 00:28:29;;;;;;;1075.00;989.03;;;;;;;20.21;51.70;101972.97;5056849;28;20430;-44
2021/11/21 00:30:55;;;;;;;1049.15;967.58;;;;;;;20.20;51.63;101987.28;5055427;28;20463;-44
2021/11/21 00:33:21;;;;;;;1085.47;995.90;;;;;;;20.19;51.95;101977.59;5074103;28;20036;-44
2021/11/21 00:35:48;;;;;;;1078.65;992.00;;;;;;;20.18;51.95;101989.22;5076744;28;20024;-45
2021/11/21 00:38:14;;;;;;;1043.70;960.22;;;;;;;20.19;51.94;101991.75;5092747;28;20358;-44
2021/11/21 00:40:40;;;;;;;1054.45;969.45;;;;;;;20.18;51.51;101991.88;5075747;28;20034;-44
2021/11/21 00:43:07;;;;;;;1064.45;978.40;;;;;;;20.17;51.56;101993.72;5076662;28;20047;-44
2021/11/21 00:45:33;;;;;;;1079.50;991.78;;;;;;;20.17;51.63;101992.88;5076616;28;20060;-44
2021/11/21 00:47:59;;;;;;;1071.80;987.83;;;;;;;20.14;51.81;102000.13;5076511;28;20502;-44
2021/11/21 00:50:28;;;;;;;1035.38;955.15;;;;;;;20.14;51.85;102001.94;5076347;28;20025;-44
2021/11/21 00:53:02;;;;;;;1081.68;992.85;;;;;;;20.12;51.72;101996.72;5076288;28;20027;-44
2021/11/21 00:55:40;;;;;;;1048.60;966.05;;;;;;;20.12;51.42;101999.41;5076419;28;20063;-44
2021/11/21 00:58:09;;;;;;;1054.75;971.03;;;;;;;20.11;51.62;101995.06;5075534;28;20020;-44
2021/11/21 01:00:36;;;;;;;1058.07;974.33;;;;;;;20.11;51.51;101999.53;5076265;28;20024;-44
2021/11/21 01:03:02;;;;;;;1052.75;969.97;;;;;;;20.11;51.82;101999.53;5076206;28;20063;-44
2021/11/21 01:05:29;;;;;;;1061.38;977.30;;;;;;;20.10;51.09;102005.84;5075041;28;20024;-44
2021/11/21 01:07:55;;;;;;;1040.68;959.80;;;;;;;20.07;51.21;102001.59;5076178;28;20028;-44
2021/11/21 01:10:22;;;;;;;1028.93;950.10;;;;;;;20.06;51.18;102007.91;5076174;28;20114;-44
2021/11/21 01:12:48;;;;;;;1004.28;926.75;;;;;;;20.04;51.71;102001.84;5076348;28;20404;-44
2021/11/21 01:15:18;;;;;;;1008.60;931.15;;;;;;;20.01;51.64;101996.75;5075728;28;20028;-44
2021/11/21 01:17:45;;;;;;;1005.92;928.63;;;;;;;20.02;51.35;102001.13;5076082;28;20366;-44
2021/11/21 01:20:11;;;;;;;1038.75;959.30;;;;;;;20.05;51.45;102000.03;5075880;28;20020;-44
2021/11/21 01:22:38;;;;;;;1020.33;943.50;;;;;;;20.02;50.93;102003.81;5091841;28;20028;-44
2021/11/21 01:25:05;;;;;;;1037.97;956.58;;;;;;;19.96;51.16;102006.09;5078439;28;20462;-44
2021/11/21 01:27:32;;;;;;;1006.80;929.88;;;;;;;20.00;50.70;102019.03;5071730;28;20028;-44
2021/11/21 01:29:58;;;;;;;1028.88;949.60;;;;;;;20.01;50.99;102015.44;5055368;28;20048;-44
2021/11/21 01:32:25;;;;;;;987.10;914.50;;;;;;;19.98;51.22;102014.81;5055850;28;20087;-44
2021/11/21 01:34:52;;;;;;;989.38;915.50;;;;;;;19.97;50.70;102010.44;5055239;28;20025;-44
2021/11/21 01:37:19;;;;;;;987.53;913.53;;;;;;;19.95;51.11;102010.59;5055497;28;20033;-44
2021/11/21 01:39:45;;;;;;;973.42;900.90;;;;;;;19.92;50.82;102013.50;5055639;28;20118;-43
2021/11/21 01:42:11;;;;;;;998.70;923.67;;;;;;;19.91;50.94;102017.13;5055497;28;20149;-44
2021/11/21 01:44:37;;;;;;;1006.78;930.42;;;;;;;19.91;51.04;102020.63;5055309;28;20060;-44
2021/11/21 01:47:05;;;;;;;1028.25;949.15;;;;;;;19.90;51.23;102020.78;5054705;28;20123;-44
2021/11/21 01:49:32;;;;;;;984.10;910.95;;;;;;;19.84;51.17;102007.91;5038110;28;20474;-43
2021/11/21 01:51:58;;;;;;;1004.08;931.15;;;;;;;19.89;51.08;102025.22;5054437;28;20435;-44
2021/11/21 01:54:24;;;;;;;988.40;915.65;;;;;;;19.89;50.57;102022.56;5052406;28;20029;-44
2021/11/21 01:56:50;;;;;;;1034.57;955.38;;;;;;;19.88;50.56;102022.69;5055177;28;20104;-44
2021/11/21 01:59:16;;;;;;;997.08;922.38;;;;;;;19.88;50.61;102020.00;5055400;28;20021;-44
2021/11/21 02:01:43;;;;;;;977.75;906.45;;;;;;;19.86;50.15;102017.50;5055099;28;20104;-44
2021/11/21 02:04:09;;;;;;;970.67;899.60;;;;;;;19.85;50.64;102022.94;5054867;28;20031;-44
2021/11/21 02:06:35;;;;;;;976.47;903.15;;;;;;;19.82;50.60;102018.69;5054179;28;20102;-44
2021/11/21 02:09:01;;;;;;;992.70;918.05;;;;;;;19.82;50.81;102016.03;5054946;28;20033;-44
2021/11/21 02:11:28;;;;;;;975.08;902.67;;;;;;;19.83;50.72;102019.56;5055084;28;20174;-44
2021/11/21 02:13:54;;;;;;;1015.72;939.22;;;;;;;19.79;50.83;102029.63;5055128;28;20028;-44
2021/11/21 02:16:22;;;;;;;1014.92;938.05;;;;;;;19.75;50.79;102023.69;5054729;28;20112;-44
2021/11/21 02:18:48;;;;;;;1017.75;941.03;;;;;;;19.76;50.72;102027.19;5054922;28;20362;-45
2021/11/21 02:21:15;;;;;;;990.83;917.05;;;;;;;19.78;50.59;102025.25;5054867;28;20025;-44
2021/11/21 02:23:41;;;;;;;1011.63;934.58;;;;;;;19.81;50.09;102021.47;5054847;28;20020;-44
2021/11/21 02:26:08;;;;;;;987.15;913.95;;;;;;;19.77;49.99;102018.19;5053764;28;20028;-44
2021/11/21 02:28:35;;;;;;;971.30;899.20;;;;;;;19.77;49.50;102028.03;5054869;28;20028;-44
2021/11/21 02:31:01;;;;;;;1017.97;940.60;;;;;;;19.75;50.30;102020.13;5054727;28;20467;-37
2021/11/21 02:33:27;;;;;;;990.70;916.65;;;;;;;19.71;50.48;102022.16;5064097;28;20549;-36
2021/11/21 02:35:56;;;;;;;974.38;901.78;;;;;;;19.70;50.03;102017.81;5090253;28;20036;-36
2021/11/21 02:38:23;;;;;;;975.90;903.90;;;;;;;19.70;50.49;102016.94;5074507;28;20021;-36
2021/11/21 02:40:50;;;;;;;988.75;914.95;;;;;;;19.69;50.26;102013.44;5073527;28;20024;-36
2021/11/21 02:43:17;;;;;;;985.88;912.35;;;;;;;19.64;50.46;102006.78;5073964;28;20392;-36
2021/11/21 02:45:44;;;;;;;979.92;906.08;;;;;;;19.63;50.25;102011.28;5074551;28;20399;-36
2021/11/21 02:48:10;;;;;;;982.40;908.50;;;;;;;19.63;50.47;102005.94;5074673;28;20028;-37
2021/11/21 02:50:37;;;;;;;995.45;919.92;;;;;;;19.55;50.42;101993.19;5074434;28;20094;-36
2021/11/21 02:53:03;;;;;;;972.63;900.83;;;;;;;19.67;49.83;102012.72;5090221;28;20099;-38
2021/11/21 02:55:32;;;;;;;985.28;911.88;;;;;;;19.64;49.74;102020.94;5074325;28;20065;-36
2021/11/21 02:58:00;;;;;;;984.33;912.15;;;;;;;19.64;49.72;102020.94;5074425;28;20071;-36
2021/11/21 03:00:26;;;;;;;944.72;877.97;;;;;;;19.63;49.75;102024.59;5090287;28;20116;-36
2021/11/21 03:02:52;;;;;;;1169.03;963.65;;;;;;;19.56;49.70;102010.06;5070290;28;20027;-39
2021/11/21 03:05:19;;;;;;;1046.45;961.05;;;;;;;18.96;45.05;102018.13;5051590;28;20429;-37
2021/11/21 03:07:46;;;;;;;962.83;889.78;;;;;;;18.73;45.54;102010.97;5046920;28;20098;-38
2021/11/21 03:10:14;;;;;;;966.42;893.65;;;;;;;18.82;45.78;102010.31;5050741;28;20051;-37
2021/11/21 03:12:42;;;;;;;1010.47;930.33;;;;;;;18.91;46.35;102008.78;5050295;28;20025;-37
2021/11/21 03:15:08;;;;;;;955.88;889.40;;;;;;;19.06;46.39;102009.44;5048928;28;20026;-37
2021/11/21 03:17:35;;;;;;;926.58;862.78;;;;;;;19.00;46.92;101992.13;5049903;28;20076;-36
2021/11/21 03:20:01;;;;;;;901.30;841.78;;;;;;;19.14;47.37;102007.88;5056961;28;20051;-37
2021/11/21 03:22:28;;;;;;;988.70;902.65;;;;;;;19.19;47.42;102015.53;5053057;28;20450;-37
2021/11/21 03:24:54;;;;;;;905.92;846.25;;;;;;;19.23;47.24;102014.34;5052986;28;20021;-36
2021/11/21 03:27:20;;;;;;;924.20;861.05;;;;;;;19.27;47.71;102013.13;5051935;28;20036;-37
2021/11/21 03:29:47;;;;;;;964.25;896.80;;;;;;;19.25;47.48;102015.06;5053012;28;20098;-37
2021/11/21 03:32:13;;;;;;;925.97;862.30;;;;;;;19.12;47.65;101982.34;5070367;28;20020;-37
2021/11/21 03:34:39;;;;;;;995.22;920.15;;;;;;;19.26;47.56;102002.59;5057411;28;20438;-37
2021/11/21 03:37:06;;;;;;;910.70;848.20;;;;;;;19.22;48.05;102007.28;5039883;28;20028;-37
2021/11/21 03:39:32;;;;;;;902.70;839.72;;;;;;;19.11;48.11;101991.31;5053344;28;20029;-37
2021/11/21 03:41:59;;;;;;;943.40;877.45;;;;;;;19.21;48.42;102005.63;5069516;28;20112;-37
2021/11/21 03:44:25;;;;;;;938.17;873.78;;;;;;;19.24;48.28;102008.06;5052620;28;20112;-37
2021/11/21 03:46:51;;;;;;;964.72;895.20;;;;;;;19.23;48.35;102003.69;5053736;28;20043;-37
2021/11/21 03:49:17;;;;;;;884.97;825.10;;;;;;;19.22;47.98;102012.63;5052397;28;20035;-37
2021/11/21 03:51:43;;;;;;;942.25;876.53;;;;;;;19.23;48.10;102006.34;5051735;28;20155;-37
2021/11/21 03:54:10;;;;;;;975.22;904.65;;;;;;;19.26;47.96;102010.56;5052468;28;20025;-37
2021/11/21 03:56:36;;;;;;;955.85;889.22;;;;;;;19.25;47.85;102001.75;5041496;28;20090;-37
2021/11/21 03:59:02;;;;;;;960.25;891.63;;;;;;;19.22;47.68;101999.31;5051720;28;20058;-37
2021/11/21 04:01:28;;;;;;;939.53;873.88;;;;;;;19.25;47.79;102001.75;5056142;28;20339;-37
2021/11/21 04:03:54;;;;;;;877.55;818.50;;;;;;;19.06;48.40;101972.16;5057032;28;20032;-37
2021/11/21 04:06:21;;;;;;;947.03;881.42;;;;;;;19.22;48.22;102001.13;5051734;28;20028;-38
2021/11/21 04:08:47;;;;;;;912.40;851.10;;;;;;;19.19;48.28;102000.41;5045729;28;20021;-37
2021/11/21 04:11:13;;;;;;;1032.85;952.70;;;;;;;19.17;48.42;102001.50;5054143;28;20040;-38
2021/11/21 04:13:39;;;;;;;926.92;861.72;;;;;;;19.18;48.39;102003.19;5053074;28;20362;-37
2021/11/21 04:16:05;;;;;;;894.75;835.55;;;;;;;19.17;48.63;102004.16;5052164;28;20041;-37
2021/11/21 04:18:33;;;;;;;925.58;862.83;;;;;;;19.14;48.68;102004.38;5048101;28;20112;-38
2021/11/21 04:20:59;;;;;;;887.60;828.17;;;;;;;19.15;48.51;102009.59;5049940;28;20033;-37
2021/11/21 04:23:29;;;;;;;905.70;842.45;;;;;;;19.07;48.15;101996.00;5056721;28;20415;-37
2021/11/21 04:25:56;;;;;;;901.90;840.38;;;;;;;19.14;48.17;102013.22;5063846;28;20044;-37
2021/11/21 04:28:22;;;;;;;970.65;900.95;;;;;;;19.15;47.85;102016.72;5054925;28;20029;-37
2021/11/21 04:30:49;;;;;;;973.97;905.28;;;;;;;19.15;47.89;102024.72;5052397;28;20036;-38
2021/11/21 04:33:15;;;;;;;915.17;852.40;;;;;;;19.12;48.13;102020.47;5053804;28;20084;-38
2021/11/21 04:35:41;;;;;;;875.50;817.17;;;;;;;19.11;48.59;102023.25;5067785;28;20112;-37
2021/11/21 04:38:07;;;;;;;998.70;924.92;;;;;;;19.12;48.46;102022.31;5055597;28;20025;-37
2021/11/21 04:40:33;;;;;;;914.47;851.55;;;;;;;19.09;48.70;102019.84;5056542;28;20060;-37
2021/11/21 04:43:01;;;;;;;954.42;885.85;;;;;;;19.03;48.47;102030.94;5056475;28;20029;-37
2021/11/21 04:45:27;;;;;;;929.90;864.13;;;;;;;19.07;48.54;102035.94;5056364;28;20025;-37
2021/11/21 04:47:53;;;;;;;942.22;876.05;;;;;;;19.07;48.57;102040.44;5056256;28;20025;-37
2021/11/21 04:50:19;;;;;;;948.22;880.95;;;;;;;19.04;48.30;102036.16;5056332;28;20028;-37
2021/11/21 04:52:45;;;;;;;927.20;863.47;;;;;;;19.03;48.27;102034.50;5055938;28;20420;-37
2021/11/21 04:55:12;;;;;;;912.60;851.42;;;;;;;19.04;48.50;102035.31;5056536;28;20025;-37
2021/11/21 04:57:40;;;;;;;927.53;862.92;;;;;;;19.07;47.96;102035.09;5056334;28;20529;-37
2021/11/21 05:00:08;;;;;;;913.50;851.13;;;;;;;19.04;48.04;102025.53;5056525;28;20024;-37
2021/11/21 05:02:39;;;;;;;967.75;899.75;;;;;;;19.02;47.91;102029.28;5055849;28;20386;-37
2021/11/21 05:05:06;;;;;;;922.80;860.20;;;;;;;19.01;48.53;102036.41;5055467;28;20353;-37
2021/11/21 05:07:32;;;;;;;935.55;870.33;;;;;;;19.00;48.67;102040.88;5056089;28;20094;-37
2021/11/21 05:09:58;;;;;;;964.55;895.83;;;;;;;18.99;48.45;102036.53;5054676;28;20033;-38
2021/11/21 05:12:25;;;;;;;913.70;851.75;;;;;;;18.97;48.47;102037.59;5055632;28;20025;-37
2021/11/21 05:14:53;;;;;;;899.10;838.05;;;;;;;18.96;48.45;102042.06;5055624;28;20074;-37
2021/11/21 05:17:19;;;;;;;922.60;860.15;;;;;;;18.97;48.28;102045.56;5070877;28;20028;-37
2021/11/21 05:19:45;;;;;;;963.85;895.05;;;;;;;18.94;48.35;102057.31;5054880;28;20462;-37
2021/11/21 05:22:11;;;;;;;892.22;832.10;;;;;;;18.91;48.37;102049.56;5055634;28;20044;-37
2021/11/21 05:24:37;;;;;;;925.88;862.53;;;;;;;18.91;48.27;102057.53;5055908;28;20025;-37
2021/11/21 05:27:04;;;;;;;918.28;854.72;;;;;;;18.91;48.51;102049.56;5055713;28;20021;-37
2021/11/21 05:29:30;;;;;;;891.20;831.33;;;;;;;18.94;48.06;102053.81;5055122;28;20028;-37
2021/11/21 05:31:56;;;;;;;923.80;859.88;;;;;;;18.95;48.22;102053.69;5055472;28;20039;-37
2021/11/21 05:34:22;;;;;;;947.90;881.55;;;;;;;18.91;48.07;102051.38;5055493;28;20514;-37
2021/11/21 05:36:48;;;;;;;924.70;861.63;;;;;;;18.89;48.40;102056.81;5055444;28;20120;-37
2021/11/21 05:39:16;;;;;;;972.83;905.55;;;;;;;18.88;48.26;102059.56;5055490;28;20021;-37
2021/11/21 05:41:42;;;;;;;917.05;855.85;;;;;;;18.86;48.08;102058.84;5055309;28;20032;-37
2021/11/21 05:44:08;;;;;;;922.67;859.63;;;;;;;18.85;48.42;102068.66;5055684;28;20035;-37
2021/11/21 05:46:35;;;;;;;958.25;889.83;;;;;;;18.86;48.58;102064.16;5055391;28;20043;-37
2021/11/21 05:49:01;;;;;;;970.38;902.60;;;;;;;18.84;48.21;102066.94;5054856;28;20024;-37
2021/11/21 05:51:27;;;;;;;921.15;859.15;;;;;;;18.82;48.29;102063.53;5055144;28;20020;-37
2021/11/21 05:53:53;;;;;;;936.53;872.28;;;;;;;18.83;48.32;102067.88;5055096;28;20037;-37
2021/11/21 05:56:20;;;;;;;914.72;852.22;;;;;;;18.75;48.24;102062.25;5048480;28;20358;-37
2021/11/21 05:58:49;;;;;;;930.65;867.47;;;;;;;18.81;47.99;102064.47;5062064;28;20047;-37
2021/11/21 06:01:16;;;;;;;894.95;834.53;;;;;;;18.79;47.91;102064.56;5061373;28;20021;-37
2021/11/21 06:03:43;;;;;;;907.78;846.60;;;;;;;18.82;48.12;102068.03;5063091;28;20451;-37
2021/11/21 06:06:09;;;;;;;926.00;861.65;;;;;;;18.79;48.19;102069.91;5054431;28;20104;-37
2021/11/21 06:08:35;;;;;;;961.88;894.15;;;;;;;18.74;48.66;102068.53;5047719;28;20451;-37
2021/11/21 06:11:01;;;;;;;915.67;853.10;;;;;;;18.70;48.37;102072.41;5048367;28;20028;-37
2021/11/21 06:13:28;;;;;;;967.40;898.38;;;;;;;18.71;48.26;102066.97;5051680;28;20025;-37
2021/11/21 06:15:54;;;;;;;921.22;858.25;;;;;;;18.70;48.21;102069.72;5050902;28;20033;-37
2021/11/21 06:18:20;;;;;;;913.65;851.97;;;;;;;18.71;48.20;102074.09;5050025;28;20443;-37
2021/11/21 06:20:46;;;;;;;934.83;869.95;;;;;;;18.70;48.21;102072.41;5070440;28;20108;-37
2021/11/21 06:23:13;;;;;;;915.90;853.90;;;;;;;18.66;48.48;102073.59;5047376;28;20026;-37
2021/11/21 06:25:42;;;;;;;897.58;836.33;;;;;;;18.58;48.24;102059.03;5035330;28;20507;-37
2021/11/21 06:28:10;;;;;;;904.17;842.88;;;;;;;18.66;48.14;102073.59;5065725;28;20128;-37
2021/11/21 06:30:37;;;;;;;870.35;813.97;;;;;;;18.68;48.07;102069.00;5054600;28;20478;-37
2021/11/21 06:33:03;;;;;;;889.05;828.58;;;;;;;18.67;48.33;102060.19;5052180;28;20029;-37
2021/11/21 06:35:30;;;;;;;932.45;869.17;;;;;;;18.68;47.75;102061.00;5065524;28;20036;-37
2021/11/21 06:37:58;;;;;;;889.83;831.85;;;;;;;18.67;48.07;102061.97;5067393;28;20078;-37
2021/11/21 06:40:24;;;;;;;929.58;866.55;;;;;;;18.62;48.49;102072.97;5050193;28;20420;-37
2021/11/21 06:42:50;;;;;;;877.15;819.42;;;;;;;18.58;48.38;102061.69;5049914;28;20107;-37
2021/11/21 06:45:16;;;;;;;905.83;843.83;;;;;;;18.58;48.43;102066.16;5050364;28;20599;-37
2021/11/21 06:47:42;;;;;;;907.33;845.38;;;;;;;18.57;48.07;102067.13;5048629;28;20036;-37
2021/11/21 06:50:11;;;;;;;921.03;859.22;;;;;;;18.56;48.34;102068.06;5045864;28;20466;-37
2021/11/21 06:52:37;;;;;;;903.53;843.17;;;;;;;18.55;48.43;102069.03;5052432;28;20033;-37
2021/11/21 06:55:05;;;;;;;904.17;844.22;;;;;;;18.53;48.13;102063.84;5061690;28;20028;-37
2021/11/21 06:57:33;;;;;;;863.40;807.55;;;;;;;18.57;47.94;102061.81;5069593;28;20424;-37
2021/11/21 07:00:00;;;;;;;868.42;812.47;;;;;;;18.53;48.39;102069.16;5043370;28;20029;-37
2021/11/21 07:02:26;;;;;;;886.53;826.97;;;;;;;18.56;48.34;102060.94;5052550;28;20037;-37
2021/11/21 07:04:52;;;;;;;904.97;844.63;;;;;;;18.58;48.18;102063.47;5050379;28;20342;-37
2021/11/21 07:07:19;;;;;;;886.72;827.83;;;;;;;18.58;47.78;102066.16;5052932;28;20454;-37
2021/11/21 07:09:45;;;;;;;902.83;842.83;;;;;;;18.53;48.25;102066.50;5061192;28;20033;-37
2021/11/21 07:12:12;;;;;;;864.47;807.75;;;;;;;18.46;48.27;102067.03;5046139;28;20060;-37
2021/11/21 07:14:38;;;;;;;911.47;849.97;;;;;;;18.49;48.27;102067.66;5036121;28;20056;-37
2021/11/21 07:17:05;;;;;;;894.72;835.83;;;;;;;18.46;48.22;102064.38;5053808;28;20086;-37
2021/11/21 07:19:31;;;;;;;868.75;812.30;;;;;;;18.43;48.43;102066.28;5051385;28;20144;-37
2021/11/21 07:21:57;;;;;;;870.28;814.20;;;;;;;18.43;48.16;102066.28;5054163;28;20029;-37
2021/11/21 07:24:23;;;;;;;882.92;825.08;;;;;;;18.42;48.24;102067.28;5044878;28;20028;-37
2021/11/21 07:26:50;;;;;;;896.33;836.78;;;;;;;18.42;48.32;102066.41;5049545;28;20031;-37
2021/11/21 07:29:16;;;;;;;872.17;815.53;;;;;;;18.42;48.31;102069.06;5043331;28;20066;-37
2021/11/21 07:31:42;;;;;;;824.45;771.95;;;;;;;18.41;48.05;102068.22;5042712;28;20036;-37
2021/11/21 07:34:08;;;;;;;891.30;832.38;;;;;;;18.44;47.97;102069.81;5045470;28;20037;-37
2021/11/21 07:36:35;;;;;;;853.53;797.88;;;;;;;18.43;47.76;102068.94;5052155;28;20032;-37
2021/11/21 07:39:01;;;;;;;848.50;794.00;;;;;;;18.47;47.77;102066.09;5056841;28;20032;-37
2021/11/21 07:41:27;;;;;;;920.95;858.38;;;;;;;18.42;48.00;102067.28;5051698;28;20102;-38
2021/11/21 07:43:53;;;;;;;885.92;828.53;;;;;;;18.40;48.27;102073.66;5056771;28;20366;-37
2021/11/21 07:46:20;;;;;;;895.80;835.17;;;;;;;18.36;48.06;102065.03;5050250;28;20028;-37
2021/11/21 07:48:46;;;;;;;891.92;833.42;;;;;;;18.32;48.08;102065.38;5053618;28;20021;-37
2021/11/21 07:51:12;;;;;;;908.97;849.13;;;;;;;18.32;48.36;102068.03;5050127;28;20036;-37
2021/11/21 07:53:38;;;;;;;881.92;824.13;;;;;;;18.31;48.12;102069.00;5054896;28;20029;-37
2021/11/21 07:56:06;;;;;;;876.83;818.42;;;;;;;18.29;48.17;102084.22;5055023;28;20031;-37
2021/11/21 07:58:32;;;;;;;890.45;831.95;;;;;;;18.29;48.05;102078.88;5051392;28;20064;-37
2021/11/21 08:00:58;;;;;;;857.30;803.00;;;;;;;18.30;48.04;102078.78;5071734;28;20025;-37
2021/11/21 08:03:24;;;;;;;864.30;808.60;;;;;;;18.31;48.05;102083.13;5047958;28;20029;-37
2021/11/21 08:05:50;;;;;;;859.92;803.78;;;;;;;18.30;48.04;102078.78;5048944;28;20028;-37
2021/11/21 08:08:17;;;;;;;847.58;793.55;;;;;;;18.34;47.93;102080.25;5054926;28;20027;-37
2021/11/21 08:10:43;;;;;;;869.25;812.78;;;;;;;18.32;48.17;102084.00;5040238;28;20037;-37
2021/11/21 08:13:09;;;;;;;881.28;823.05;;;;;;;18.29;48.17;102082.38;5055107;28;20055;-37
2021/11/21 08:15:37;;;;;;;905.70;845.15;;;;;;;18.26;48.41;102089.72;5056026;28;20078;-37
2021/11/21 08:18:03;;;;;;;877.55;819.55;;;;;;;18.22;48.22;102083.78;5055694;28;20119;-37
2021/11/21 08:20:30;;;;;;;856.45;800.38;;;;;;;18.22;47.99;102092.59;5055662;28;20368;-37
2021/11/21 08:22:56;;;;;;;909.40;849.35;;;;;;;18.21;47.95;102080.28;5052265;28;20021;-37
2021/11/21 08:25:22;;;;;;;854.30;799.00;;;;;;;18.18;48.09;102080.50;5046641;28;20030;-37
2021/11/21 08:27:48;;;;;;;897.45;837.40;;;;;;;18.20;48.05;102091.88;5052554;28;20028;-37
2021/11/21 08:30:14;;;;;;;883.08;825.22;;;;;;;18.16;48.13;102079.75;5048098;28;20022;-38
2021/11/21 08:32:41;;;;;;;899.85;839.28;;;;;;;18.14;48.13;102092.31;5037328;28;20033;-37
2021/11/21 08:35:07;;;;;;;854.42;798.75;;;;;;;18.19;48.10;102092.84;5049437;28;20040;-37
2021/11/21 08:37:33;;;;;;;858.65;803.65;;;;;;;18.20;47.96;102089.22;5056873;28;20021;-37
2021/11/21 08:40:00;;;;;;;851.00;796.67;;;;;;;18.21;48.04;102095.41;5065031;28;20025;-37
2021/11/21 08:42:27;;;;;;;836.47;783.38;;;;;;;18.20;47.88;102091.03;5036081;28;20029;-37
2021/11/21 08:44:53;;;;;;;869.78;812.42;;;;;;;18.17;48.19;102091.22;5053360;28;20031;-37
2021/11/21 08:47:20;;;;;;;861.58;806.45;;;;;;;18.16;48.17;102094.88;5056695;28;20035;-37
2021/11/21 08:49:46;;;;;;;862.40;806.63;;;;;;;18.12;48.03;102096.03;5055767;28;20032;-37
2021/11/21 08:52:12;;;;;;;851.35;797.00;;;;;;;18.09;48.16;102099.75;5054634;28;20033;-37
2021/11/21 08:54:39;;;;;;;868.95;812.75;;;;;;;18.06;47.96;102094.66;5045258;28;20034;-37
2021/11/21 08:57:05;;;;;;;881.63;824.40;;;;;;;18.06;48.00;102094.66;5039616;28;20029;-37
2021/11/21 08:59:32;;;;;;;879.10;820.75;;;;;;;18.08;48.13;102105.19;5055480;28;20060;-37
2021/11/21 09:01:58;;;;;;;866.20;810.08;;;;;;;18.02;48.21;102096.66;5055099;28;20031;-37
2021/11/21 09:04:24;;;;;;;892.25;833.50;;;;;;;18.04;48.01;102101.88;5049199;28;20143;-37
2021/11/21 09:06:50;;;;;;;843.42;789.00;;;;;;;18.06;48.03;102099.97;5043827;28;20335;-37
2021/11/21 09:09:16;;;;;;;850.03;795.78;;;;;;;18.08;48.04;102103.34;5055200;28;20472;-37
2021/11/21 09:11:43;;;;;;;869.03;813.58;;;;;;;18.08;48.11;102103.34;5054941;28;20029;-37
2021/11/21 09:14:09;;;;;;;845.55;791.67;;;;;;;18.10;47.95;102104.09;5055475;28;20120;-37
2021/11/21 09:16:35;;;;;;;892.50;834.53;;;;;;;18.02;48.03;102101.16;5055048;28;20032;-37
2021/11/21 09:19:01;;;;;;;896.55;837.28;;;;;;;18.00;48.08;102100.41;5046444;28;20332;-37
2021/11/21 09:21:28;;;;;;;880.25;823.13;;;;;;;17.93;48.18;102099.97;5055572;28;20354;-37
2021/11/21 09:23:54;;;;;;;856.42;801.53;;;;;;;17.99;47.94;102098.69;5053489;28;20031;-37
2021/11/21 09:26:20;;;;;;;865.38;809.03;;;;;;;17.94;48.15;102100.81;5054441;28;20028;-37
2021/11/21 09:28:46;;;;;;;871.53;813.95;;;;;;;17.91;48.16;102093.91;5053276;28;20091;-37
2021/11/21 09:31:12;;;;;;;869.47;812.70;;;;;;;17.88;48.21;102086.16;5042798;28;20363;-37
2021/11/21 09:33:39;;;;;;;855.08;800.85;;;;;;;17.90;48.04;102102.84;5042134;28;20124;-37
2021/11/21 09:36:08;;;;;;;885.40;827.67;;;;;;;17.89;47.80;102095.84;5051141;28;20414;-37
2021/11/21 09:38:34;;;;;;;885.05;826.95;;;;;;;17.92;47.81;102092.09;5053831;28;20021;-37
2021/11/21 09:41:00;;;;;;;831.72;778.83;;;;;;;17.94;48.04;102095.50;5040761;28;20078;-37
2021/11/21 09:43:26;;;;;;;865.33;809.72;;;;;;;17.95;47.93;102089.25;5048591;28;20025;-37
2021/11/21 09:45:52;;;;;;;832.33;779.33;;;;;;;17.94;47.85;102092.84;5058202;28;20063;-37
2021/11/21 09:48:19;;;;;;;872.78;816.53;;;;;;;17.95;48.13;102091.91;5054437;28;20035;-37
2021/11/21 09:50:45;;;;;;;863.15;807.83;;;;;;;17.89;48.15;102092.31;5051391;28;20024;-37
2021/11/21 09:53:12;;;;;;;836.58;783.88;;;;;;;17.86;48.10;102090.72;5054587;28;20346;-37
2021/11/21 09:55:39;;;;;;;844.80;790.70;;;;;;;17.86;48.13;102085.41;5054213;28;20062;-37
2021/11/21 09:58:05;;;;;;;831.97;779.53;;;;;;;17.83;48.08;102081.09;5055112;28;20033;-37
2021/11/21 10:00:31;;;;;;;871.13;814.80;;;;;;;17.81;48.23;102090.16;5054745;28;20099;-37
2021/11/21 10:03:01;;;;;;;869.33;813.85;;;;;;;17.79;48.09;102079.63;5053884;28;20024;-37
2021/11/21 10:05:28;;;;;;;868.50;812.47;;;;;;;17.81;48.05;102087.50;5051026;28;20358;-37
2021/11/21 10:08:14;;;;;;;841.60;787.13;;;;;;;17.77;48.12;102084.19;5052875;28;20025;-37
2021/11/21 10:10:44;;;;;;;841.90;788.25;;;;;;;17.80;48.05;102086.66;5053566;28;20451;-37
2021/11/21 10:13:28;;;;;;;821.88;770.58;;;;;;;17.71;47.98;102068.66;5053577;28;20426;-36
2021/11/21 10:15:55;;;;;;;842.47;789.58;;;;;;;17.85;47.97;102088.97;5045635;28;20116;-37
2021/11/21 10:18:22;;;;;;;845.58;792.83;;;;;;;17.79;48.07;102082.28;5053314;28;20455;-37
2021/11/21 10:20:48;;;;;;;858.65;803.53;;;;;;;17.81;47.94;102085.69;5054537;28;20155;-37
2021/11/21 10:23:14;;;;;;;845.42;791.58;;;;;;;17.76;48.12;102082.47;5053800;28;20029;-37
2021/11/21 10:25:51;;;;;;;883.28;826.53;;;;;;;17.70;48.36;102090.88;5068863;28;20451;-37
2021/11/21 10:28:17;;;;;;;856.53;801.50;;;;;;;17.70;48.13;102090.06;5034066;28;20025;-37
2021/11/21 10:31:10;;;;;;;851.30;797.53;;;;;;;17.70;48.28;102084.75;5041471;28;20025;-37
2021/11/21 10:33:44;;;;;;;850.88;797.40;;;;;;;17.65;48.16;102083.22;5046035;28;20098;-37
2021/11/21 10:36:12;;;;;;;856.70;802.40;;;;;;;17.67;48.10;102078.66;5047156;28;20366;-37
2021/11/21 10:38:57;;;;;;;860.65;805.95;;;;;;;17.65;48.23;102075.25;5054518;28;20032;-37
2021/11/21 10:41:28;;;;;;;814.83;763.90;;;;;;;17.64;48.15;102078.88;5051797;28;20039;-37
2021/11/21 10:43:59;;;;;;;854.83;800.20;;;;;;;17.67;48.01;102073.34;5054405;28;20017;-37
2021/11/21 10:46:44;;;;;;;841.20;787.97;;;;;;;17.68;48.00;102075.06;5052691;28;20029;-37
2021/11/21 10:49:16;;;;;;;831.10;778.97;;;;;;;17.67;48.17;102072.50;5052675;28;20032;-37
2021/11/21 10:51:42;;;;;;;846.85;792.80;;;;;;;17.70;47.93;102076.78;5049433;28;20058;-38